チューク諸島 の空港の天気 - METARとTAF

チューク国際空港 ( PTKK / TKK ) - ミクロネシア連邦 チューク諸島
飛行場実況気象(Metar)
観測時間02/18 00:53 +10 (02/17 14:53 UTC)
風向・風速北東 4m/s 瞬間風速86m/s
視程10km以上
天気現象
少しの雲 雲底高度 430m
全天の4割程度の雲 雲底高度 8530m
気温27.5℃
湿度82%
気圧1010.3hPa
METARPTKK 171453Z 05008G168KT 15SM FEW014 SCT280 28/24 A2983 RMK SLP103 8/101 T02750242 57017
過去の天気等 Google飛行場航空写真 Wunderground天気予報

過去48時間のMETAR

飛行場予報(TAF)
発表時間: 2/17 21:35 +10 (2/17 11:35 UTC)
予報対象時間: 17日22時 +10 ~ 18日22時 +10
風向・風速北東 8m/s
視程10km以上
天気現象周辺でしゅう雨
少しの雲 雲底高度 460m
全天の4割程度の雲 雲底高度 1520m
全天の4割程度の雲 雲底高度 3050m
PTKK 171135Z 1712/1812 04015KT P6SM VCSH FEW015 SCT050 SCT100